Lillis, Kansas
Current Conditions -  °F | °C
As of 7:35 AM on Wednesday 22 Oct 2014 (Local Time) from KMYZ Reporting Station
Clear Clear  
Wind Chill: 12°   Ceiling: Unl
Heat Index: 12°   Visibility: 10mi
Dew Point:   Wind: 10mph
Humidity: 72%   Direction: 150°SSE
Pressure: 30.09"   Gusts: NA
Location:  39.7199°N, 96.4404°W
Report Text: KMYZ 221235Z AUTO 15009KT 10SM CLR 12/07 A3009 RMK AO2
Loading
Personal Weather Stations






























Interactive Weather Map
Tropical Storm Tracking
New forecast layout! Learn more

10-Day Weather Forecast

Advertisements
Track Severe Weather on mobile